createdAt,value
2016-08-14T04:02:56.277Z,0
2016-08-14T04:03:29.871Z,0
2016-08-14T04:03:55.525Z,0
2016-08-14T04:04:21.123Z,0
2016-08-14T04:04:46.670Z,0
2016-08-14T04:05:12.218Z,0
2016-08-14T04:05:37.788Z,0
2016-08-14T04:06:03.350Z,0
2016-08-14T04:06:28.915Z,0
2016-08-14T04:06:54.494Z,0
2016-08-14T04:07:20.067Z,0
2016-08-14T04:07:45.645Z,0
2016-08-14T04:08:11.283Z,0
2016-08-14T04:08:36.882Z,0
2016-08-14T04:09:02.446Z,0
2016-08-14T04:09:28.021Z,0
2016-08-14T04:09:53.585Z,0
2016-08-14T04:10:19.155Z,0
2016-08-14T04:10:44.711Z,0
2016-08-14T04:11:10.261Z,0
2016-08-14T04:11:35.849Z,0
2016-08-14T04:12:01.417Z,0
2016-08-14T04:12:27.082Z,0
2016-08-14T04:12:52.754Z,0
2016-08-14T04:13:18.303Z,0
2016-08-14T04:13:43.858Z,0
2016-08-14T04:14:09.416Z,0
2016-08-14T04:15:12.589Z,4
2016-08-14T04:15:38.156Z,4
2016-08-14T04:16:03.721Z,4
2016-08-14T04:16:29.336Z,4
2016-08-14T04:16:54.905Z,4
2016-08-14T04:17:20.464Z,4
2016-08-14T04:17:46.029Z,4
2016-08-14T04:18:11.602Z,4
2016-08-14T04:18:37.176Z,4
2016-08-14T04:19:02.735Z,4
2016-08-14T04:19:28.304Z,4
2016-08-14T04:19:53.910Z,4
2016-08-14T04:20:19.463Z,4
2016-08-14T04:20:45.017Z,4
2016-08-14T04:21:10.586Z,4
2016-08-14T04:21:36.145Z,4
2016-08-14T04:22:01.746Z,4
2016-08-14T04:22:27.329Z,4
2016-08-14T04:22:52.903Z,0
2016-08-14T04:23:18.486Z,0
2016-08-14T04:23:44.046Z,0
2016-08-14T04:24:09.604Z,0
2016-08-14T04:24:35.154Z,0
2016-08-14T04:25:00.726Z,0
2016-08-14T04:25:26.296Z,0
2016-08-14T04:25:51.918Z,0
2016-08-14T04:26:17.485Z,0
2016-08-14T04:26:43.047Z,0
2016-08-14T04:27:08.626Z,0
2016-08-14T04:27:34.315Z,0
2016-08-14T04:27:59.874Z,4
2016-08-14T04:28:25.454Z,4
2016-08-14T04:28:51.121Z,4
2016-08-14T04:29:16.705Z,4
2016-08-14T04:29:42.275Z,4
2016-08-14T04:30:07.849Z,4
2016-08-14T04:30:33.422Z,4
2016-08-14T04:30:59.007Z,4
2016-08-14T04:31:24.631Z,4
2016-08-14T04:31:50.331Z,4
2016-08-14T04:32:15.894Z,4
2016-08-14T04:32:41.453Z,0
2016-08-14T04:33:07.024Z,0
2016-08-14T04:33:32.602Z,4
2016-08-14T04:33:58.174Z,4
2016-08-14T04:34:23.746Z,4
2016-08-14T04:34:49.326Z,4
2016-08-14T04:35:14.894Z,4
2016-08-14T04:35:40.465Z,4
2016-08-14T04:36:06.088Z,4
2016-08-14T04:36:31.664Z,4
2016-08-14T04:36:57.218Z,4
2016-08-14T04:37:22.787Z,4
2016-08-14T04:37:48.345Z,4
2016-08-14T04:38:13.903Z,8
2016-08-14T04:38:39.475Z,8
2016-08-14T04:39:05.063Z,4
2016-08-14T04:39:30.615Z,4
2016-08-14T04:39:56.185Z,4
2016-08-14T04:40:21.808Z,4
2016-08-14T04:40:47.352Z,4
2016-08-14T04:41:12.921Z,4
2016-08-14T04:41:38.526Z,4
2016-08-14T04:42:04.078Z,4
2016-08-14T04:42:29.699Z,4
2016-08-14T04:42:55.245Z,4
2016-08-14T04:43:20.819Z,4
2016-08-14T04:43:46.395Z,4
2016-08-14T04:44:11.956Z,4
2016-08-14T04:44:37.564Z,4
2016-08-14T04:45:03.114Z,8
2016-08-14T04:46:16.658Z,8
2016-08-14T04:46:42.238Z,8
2016-08-14T04:47:07.810Z,8
2016-08-14T04:47:33.414Z,8
2016-08-14T04:47:58.991Z,8
2016-08-14T04:48:24.644Z,8
2016-08-14T04:48:50.211Z,8
2016-08-14T04:49:15.786Z,8
2016-08-14T04:49:41.378Z,8
2016-08-14T04:50:06.953Z,8
2016-08-14T04:50:32.624Z,8
2016-08-14T04:50:58.188Z,8
2016-08-14T04:52:16.741Z,8
2016-08-14T04:52:42.314Z,8
2016-08-14T04:53:08.027Z,8
2016-08-14T04:53:33.605Z,8
2016-08-14T04:53:59.178Z,4
2016-08-14T04:54:24.726Z,4
2016-08-14T04:54:50.295Z,4
2016-08-14T04:55:15.862Z,4
2016-08-14T04:55:41.437Z,8
2016-08-14T04:56:07.024Z,8
2016-08-14T04:56:32.602Z,8
2016-08-14T04:56:58.234Z,8
2016-08-14T04:57:23.784Z,8
2016-08-14T04:57:49.356Z,8
2016-08-14T04:58:15.014Z,8
2016-08-14T04:58:40.596Z,8
2016-08-14T04:59:06.164Z,8
2016-08-14T04:59:31.729Z,8
2016-08-14T04:59:57.299Z,8
2016-08-14T05:00:22.869Z,8
2016-08-14T05:00:48.436Z,4
2016-08-14T05:01:14.011Z,8
2016-08-14T05:01:39.581Z,8
2016-08-14T05:02:05.158Z,8
2016-08-14T05:02:30.715Z,8
2016-08-14T05:02:56.282Z,8
2016-08-14T05:03:21.843Z,8
2016-08-14T05:03:47.382Z,8
2016-08-14T05:04:12.934Z,8
2016-08-14T05:04:38.498Z,8
2016-08-14T05:05:04.071Z,8
2016-08-14T05:05:29.623Z,8
2016-08-14T05:05:55.174Z,8
2016-08-14T05:06:20.734Z,8
2016-08-14T05:06:46.283Z,12
2016-08-14T05:07:11.843Z,12
2016-08-14T05:07:37.405Z,12
2016-08-14T05:08:02.975Z,8
2016-08-14T05:08:28.542Z,8
2016-08-14T05:08:54.112Z,8
2016-08-14T05:09:19.678Z,8
2016-08-14T05:09:45.239Z,8
2016-08-14T05:10:10.799Z,8
2016-08-14T05:10:36.371Z,12
2016-08-14T05:11:01.925Z,8
2016-08-14T05:11:27.475Z,8
2016-08-14T05:11:53.176Z,8
2016-08-14T05:12:18.741Z,8
2016-08-14T05:12:44.309Z,8
2016-08-14T05:13:09.855Z,8
2016-08-14T05:13:35.644Z,8
2016-08-14T05:14:01.194Z,8
2016-08-14T05:14:26.779Z,8
2016-08-14T05:14:52.336Z,8
2016-08-14T05:15:17.899Z,8
2016-08-14T05:15:43.474Z,12
2016-08-14T05:16:09.046Z,12
2016-08-14T05:16:34.605Z,12
2016-08-14T05:17:00.170Z,12
2016-08-14T05:17:25.745Z,12
2016-08-14T05:17:51.496Z,12
2016-08-14T05:18:17.058Z,12
2016-08-14T05:18:42.618Z,8
2016-08-14T05:19:08.172Z,8
2016-08-14T05:19:33.739Z,12
2016-08-14T05:19:59.295Z,12
2016-08-14T05:20:24.875Z,12
2016-08-14T05:20:50.456Z,12
2016-08-14T05:21:16.026Z,12
2016-08-14T05:21:41.588Z,12
2016-08-14T05:22:07.152Z,12
2016-08-14T05:22:32.708Z,12
2016-08-14T05:22:58.284Z,12
2016-08-14T05:23:23.955Z,12
2016-08-14T05:23:49.517Z,12
2016-08-14T05:24:15.077Z,12
2016-08-14T05:24:40.702Z,12
2016-08-14T05:25:59.479Z,12
2016-08-14T05:26:25.132Z,16
2016-08-14T05:26:50.704Z,16
2016-08-14T05:27:16.274Z,16
2016-08-14T05:30:00.923Z,16
2016-08-14T05:30:34.827Z,12
2016-08-14T05:31:00.424Z,12
2016-08-14T05:31:25.987Z,16
2016-08-14T05:31:51.616Z,16
2016-08-14T05:32:17.193Z,16
2016-08-14T05:32:42.745Z,12
2016-08-14T05:33:08.312Z,16
2016-08-14T05:33:33.881Z,16
2016-08-14T05:33:59.457Z,16
2016-08-14T05:34:25.013Z,16
2016-08-14T05:34:50.565Z,16
2016-08-14T05:35:16.130Z,12
2016-08-14T05:35:41.946Z,16
2016-08-14T05:36:07.512Z,16
2016-08-14T05:36:33.104Z,16
2016-08-14T05:36:58.686Z,16
2016-08-14T05:37:24.254Z,16
2016-08-14T05:37:49.858Z,16
2016-08-14T05:38:15.424Z,16
2016-08-14T05:38:40.987Z,16
2016-08-14T05:39:06.749Z,12
2016-08-14T05:39:32.304Z,16
2016-08-14T05:39:57.867Z,16
2016-08-14T05:40:23.436Z,16
2016-08-14T05:40:48.996Z,16
2016-08-14T05:41:14.559Z,12
2016-08-14T05:41:40.154Z,16
2016-08-14T05:42:05.735Z,16
2016-08-14T05:42:31.298Z,12
2016-08-14T05:42:56.928Z,12
2016-08-14T05:43:22.516Z,16
2016-08-14T05:43:48.085Z,16
2016-08-14T05:44:13.645Z,16
2016-08-14T05:44:39.227Z,12
2016-08-14T05:45:04.800Z,12
2016-08-14T05:45:30.368Z,12
2016-08-14T05:45:55.924Z,16
2016-08-14T05:46:21.487Z,12
2016-08-14T05:46:47.204Z,12
2016-08-14T05:47:12.775Z,12
2016-08-14T05:47:38.389Z,12
2016-08-14T05:48:03.969Z,12
2016-08-14T05:48:29.520Z,12
2016-08-14T05:48:55.105Z,12
2016-08-14T05:49:20.670Z,12
2016-08-14T05:49:46.364Z,12
2016-08-14T05:50:11.934Z,12
2016-08-14T05:50:37.488Z,12
2016-08-14T05:51:03.056Z,12
2016-08-14T05:51:28.613Z,12
2016-08-14T05:51:54.179Z,12
2016-08-14T05:52:19.751Z,12
2016-08-14T05:52:45.315Z,12
2016-08-14T05:53:10.893Z,12
2016-08-14T05:53:36.441Z,12
2016-08-14T05:54:02.009Z,12
2016-08-14T05:54:27.555Z,12
2016-08-14T05:54:53.126Z,12
2016-08-14T05:55:18.687Z,12
2016-08-14T05:55:44.263Z,12
2016-08-14T05:56:09.864Z,12
2016-08-14T05:56:35.426Z,12
2016-08-14T05:57:01.003Z,12
2016-08-14T05:57:26.580Z,16
2016-08-14T05:57:52.157Z,16
2016-08-14T05:58:17.736Z,12
2016-08-14T05:58:43.333Z,12
2016-08-14T05:59:08.917Z,12
2016-08-14T05:59:34.469Z,12
2016-08-14T06:00:00.048Z,12
2016-08-14T06:01:08.525Z,12
2016-08-14T06:01:34.277Z,12
2016-08-14T06:01:59.876Z,12
2016-08-14T06:02:25.534Z,16
2016-08-14T06:02:51.087Z,16
2016-08-14T06:03:16.656Z,16
2016-08-14T06:03:42.215Z,16
2016-08-14T06:04:07.762Z,16
2016-08-14T06:04:33.344Z,16
2016-08-14T06:04:59.000Z,12
2016-08-14T06:05:24.646Z,12
2016-08-14T06:05:50.203Z,12
2016-08-14T06:06:15.754Z,12
2016-08-14T06:06:41.346Z,12
2016-08-14T06:07:06.885Z,16
2016-08-14T06:07:32.443Z,16
2016-08-14T06:07:58.007Z,16
2016-08-14T06:08:23.618Z,16
2016-08-14T06:08:49.236Z,12
2016-08-14T06:09:14.790Z,12
2016-08-14T06:09:40.421Z,12
2016-08-14T06:10:06.055Z,16
2016-08-14T06:10:31.658Z,16
2016-08-14T06:10:57.232Z,12
2016-08-14T06:11:22.807Z,12
2016-08-14T06:11:48.434Z,16
2016-08-14T06:12:13.979Z,16
2016-08-14T06:12:39.559Z,16
2016-08-14T06:13:05.142Z,16
2016-08-14T06:13:30.714Z,12
2016-08-14T06:13:56.266Z,12
2016-08-14T06:14:21.841Z,12
2016-08-14T06:14:47.418Z,12
2016-08-14T06:15:12.988Z,12
2016-08-14T06:15:38.535Z,12
2016-08-14T06:16:04.085Z,12
2016-08-14T06:16:29.654Z,12
2016-08-14T06:16:55.239Z,12
2016-08-14T06:17:20.796Z,12
2016-08-14T06:17:46.362Z,16
2016-08-14T06:18:11.937Z,12
2016-08-14T06:18:37.507Z,16
2016-08-14T06:19:03.086Z,16
2016-08-14T06:19:28.657Z,12
2016-08-14T06:19:54.344Z,16
2016-08-14T06:20:19.906Z,16
2016-08-14T06:20:45.551Z,16
2016-08-14T06:21:11.139Z,16
2016-08-14T06:21:36.696Z,16
2016-08-14T06:22:02.251Z,12
2016-08-14T06:22:27.822Z,16
2016-08-14T06:22:53.381Z,16
2016-08-14T06:23:18.946Z,16
2016-08-14T06:23:44.504Z,16
2016-08-14T06:24:10.063Z,16
2016-08-14T06:24:35.718Z,16
2016-08-14T06:25:01.276Z,16
2016-08-14T06:25:26.853Z,16
2016-08-14T06:25:52.529Z,16
2016-08-14T06:26:18.141Z,16
2016-08-14T06:29:11.327Z,20
2016-08-14T06:29:37.005Z,20
2016-08-14T06:30:02.557Z,20
2016-08-14T06:30:28.117Z,24
2016-08-14T06:30:53.677Z,20
2016-08-14T06:31:19.610Z,24
2016-08-14T06:31:45.153Z,24
2016-08-14T06:32:10.723Z,24
2016-08-14T06:32:36.421Z,24
2016-08-14T06:33:02.060Z,24
2016-08-14T06:34:15.814Z,28
2016-08-14T06:34:41.445Z,28
2016-08-14T06:35:07.005Z,28
2016-08-14T06:35:32.654Z,28
2016-08-14T06:35:58.268Z,24
2016-08-14T06:36:23.797Z,28
2016-08-14T06:36:49.349Z,28
2016-08-14T06:37:14.977Z,28
2016-08-14T06:37:40.514Z,28
2016-08-14T06:38:06.131Z,28
2016-08-14T06:38:31.752Z,24
2016-08-14T06:38:57.397Z,24
2016-08-14T06:40:00.567Z,24
2016-08-14T06:41:14.150Z,28
2016-08-14T06:41:39.933Z,24
2016-08-14T06:42:05.515Z,24
2016-08-14T06:42:31.074Z,24
2016-08-14T06:42:56.756Z,24
2016-08-14T06:43:22.334Z,24
2016-08-14T06:43:47.906Z,24
2016-08-14T06:44:13.616Z,24
2016-08-14T06:44:39.216Z,24
2016-08-14T06:45:04.821Z,24
2016-08-14T06:45:30.380Z,20
2016-08-14T06:45:55.951Z,24
2016-08-14T06:46:21.539Z,24
2016-08-14T06:46:47.080Z,24
2016-08-14T06:47:12.623Z,24
2016-08-14T06:47:38.165Z,24
2016-08-14T06:48:03.738Z,24
2016-08-14T06:48:29.407Z,24
2016-08-14T06:48:54.972Z,24
2016-08-14T06:49:20.583Z,24
2016-08-14T06:49:46.177Z,24
2016-08-14T06:50:11.736Z,24
2016-08-14T06:50:37.262Z,24
2016-08-14T06:51:02.803Z,24
2016-08-14T06:51:28.344Z,20
2016-08-14T06:51:53.909Z,24
2016-08-14T06:52:19.471Z,24
2016-08-14T06:52:45.050Z,24
2016-08-14T06:53:10.604Z,24
2016-08-14T06:53:36.174Z,20
2016-08-14T06:54:01.842Z,20
2016-08-14T06:54:27.421Z,24
2016-08-14T06:54:52.968Z,24
2016-08-14T06:55:18.561Z,20
2016-08-14T06:55:44.169Z,20
2016-08-14T06:56:09.739Z,20
2016-08-14T06:56:35.289Z,20
2016-08-14T06:57:00.972Z,20
2016-08-14T06:57:26.531Z,20
2016-08-14T06:57:52.156Z,20
2016-08-14T06:58:17.781Z,20
2016-08-14T06:58:43.411Z,20
2016-08-14T06:59:09.013Z,20
2016-08-14T06:59:34.587Z,16
2016-08-14T07:00:00.235Z,20
2016-08-14T07:00:25.796Z,20
2016-08-14T07:00:51.351Z,20
2016-08-14T07:01:17.013Z,20
2016-08-14T07:01:42.644Z,16
2016-08-14T07:02:08.732Z,16
2016-08-14T07:02:34.393Z,20
2016-08-14T07:03:00.048Z,20
2016-08-14T07:03:25.633Z,20
2016-08-14T07:03:55.578Z,16
2016-08-14T07:04:23.444Z,16
2016-08-14T07:05:44.352Z,16
2016-08-14T07:07:10.839Z,16
2016-08-14T07:07:39.611Z,16
2016-08-14T07:08:07.190Z,20
2016-08-14T07:08:33.763Z,20
2016-08-14T07:08:59.467Z,16
2016-08-14T07:09:24.919Z,20
2016-08-14T07:09:50.692Z,20
2016-08-14T07:10:16.250Z,20
2016-08-14T07:10:41.821Z,20
2016-08-14T07:11:07.417Z,20
2016-08-14T07:11:32.983Z,20
2016-08-14T07:11:58.527Z,20
2016-08-14T07:12:24.145Z,20
2016-08-14T07:12:49.712Z,20
2016-08-14T07:13:15.297Z,20
2016-08-14T07:13:40.900Z,20
2016-08-14T07:14:06.486Z,20
2016-08-14T07:14:32.079Z,20
2016-08-14T07:14:57.670Z,20
2016-08-14T07:15:23.277Z,24
2016-08-14T07:15:48.881Z,24
2016-08-14T07:16:14.435Z,20
2016-08-14T07:16:40.020Z,20
2016-08-14T07:17:05.606Z,24
2016-08-14T07:17:31.273Z,24
2016-08-14T07:17:56.830Z,24
2016-08-14T07:18:22.395Z,24
2016-08-14T07:18:47.969Z,24
2016-08-14T07:20:11.624Z,24
2016-08-14T07:21:14.790Z,24
2016-08-14T07:21:40.441Z,20
2016-08-14T07:22:06.086Z,24
2016-08-14T07:22:31.722Z,24
2016-08-14T07:22:57.326Z,24
2016-08-14T07:23:22.885Z,20
2016-08-14T07:23:48.485Z,24
2016-08-14T07:24:14.143Z,24
2016-08-14T07:24:39.667Z,24
2016-08-14T07:25:05.377Z,28
2016-08-14T07:25:31.140Z,24
2016-08-14T07:25:56.734Z,28
2016-08-14T07:26:22.292Z,28
2016-08-14T07:26:47.979Z,28
2016-08-14T07:27:13.515Z,28
2016-08-14T07:27:39.171Z,28
2016-08-14T07:28:04.724Z,28
2016-08-14T07:28:30.295Z,28
2016-08-14T07:28:56.086Z,28
2016-08-14T07:30:14.661Z,28
2016-08-14T07:30:40.319Z,28
2016-08-14T07:31:05.936Z,32
2016-08-14T07:31:31.535Z,28
2016-08-14T07:31:57.105Z,32
2016-08-14T07:32:23.045Z,32
2016-08-14T07:32:48.525Z,36
2016-08-14T07:33:13.936Z,32
2016-08-14T07:33:39.528Z,32
2016-08-14T07:34:05.105Z,36
2016-08-14T07:34:30.850Z,36
2016-08-14T07:34:56.505Z,40
2016-08-14T07:35:22.070Z,36
2016-08-14T07:35:47.727Z,40
2016-08-14T07:36:13.418Z,40
2016-08-14T07:36:38.979Z,40
2016-08-14T07:37:04.544Z,44
2016-08-14T07:37:30.097Z,40
2016-08-14T07:37:55.770Z,40
2016-08-14T07:38:21.490Z,44
2016-08-14T07:38:47.058Z,40
2016-08-14T07:39:12.633Z,44
2016-08-14T07:39:38.203Z,44
2016-08-14T07:40:03.778Z,44
2016-08-14T07:40:29.348Z,40
2016-08-14T07:40:54.914Z,44
2016-08-14T07:41:20.480Z,40
2016-08-14T07:41:46.275Z,40
2016-08-14T07:42:11.859Z,40
2016-08-14T07:42:37.421Z,40
2016-08-14T07:43:03.050Z,36
2016-08-14T07:43:28.635Z,40
2016-08-14T07:43:54.224Z,40
2016-08-14T07:44:19.813Z,40
2016-08-14T07:44:45.375Z,44
2016-08-14T07:45:10.996Z,40
2016-08-14T07:45:36.566Z,44
2016-08-14T07:46:02.153Z,44
2016-08-14T07:46:27.711Z,40
2016-08-14T07:46:53.259Z,44
2016-08-14T07:47:18.845Z,40
2016-08-14T07:47:44.422Z,40
2016-08-14T07:48:10.027Z,40
2016-08-14T07:48:35.591Z,40
2016-08-14T07:49:01.192Z,40
2016-08-14T07:49:26.790Z,44
2016-08-14T07:49:52.353Z,44
2016-08-14T07:50:17.938Z,44
2016-08-14T07:50:43.477Z,44
2016-08-14T07:51:09.041Z,40
2016-08-14T07:51:34.671Z,40
2016-08-14T07:52:00.234Z,40
2016-08-14T07:52:25.812Z,40
2016-08-14T07:52:51.355Z,40
2016-08-14T07:53:16.910Z,40
2016-08-14T07:53:42.462Z,36
2016-08-14T07:54:08.028Z,40
2016-08-14T07:54:33.599Z,36
2016-08-14T07:54:59.160Z,32
2016-08-14T07:55:24.728Z,36
2016-08-14T07:55:50.339Z,36
2016-08-14T07:56:15.926Z,36
2016-08-14T07:56:41.494Z,36
2016-08-14T07:57:07.118Z,36
2016-08-14T07:57:32.690Z,36
2016-08-14T07:57:58.262Z,36
2016-08-14T07:58:23.900Z,36
2016-08-14T07:58:49.531Z,36
2016-08-14T07:59:15.121Z,36
2016-08-14T07:59:40.685Z,36
2016-08-14T08:00:06.482Z,36
2016-08-14T08:01:09.655Z,36
2016-08-14T08:01:35.228Z,36
2016-08-14T08:02:00.805Z,36
2016-08-14T08:02:26.375Z,36
2016-08-14T08:02:51.928Z,36
2016-08-14T08:03:17.521Z,36
2016-08-14T08:03:43.135Z,40
2016-08-14T08:04:08.704Z,36
2016-08-14T08:04:34.295Z,40
2016-08-14T08:04:59.873Z,36
2016-08-14T08:05:25.556Z,36
2016-08-14T08:05:51.132Z,36
2016-08-14T08:06:16.696Z,40
2016-08-14T08:06:42.307Z,36
2016-08-14T08:07:07.862Z,36
2016-08-14T08:08:16.174Z,40
2016-08-14T08:08:41.731Z,40
2016-08-14T08:09:07.338Z,40
2016-08-14T08:09:32.930Z,40
2016-08-14T08:09:58.474Z,44
2016-08-14T08:10:24.020Z,44
2016-08-14T08:10:49.561Z,44
2016-08-14T08:11:15.124Z,44
2016-08-14T08:11:40.757Z,44
2016-08-14T08:12:06.314Z,48
2016-08-14T08:12:31.950Z,44
2016-08-14T08:12:57.560Z,44
2016-08-14T08:13:23.106Z,44
2016-08-14T08:13:48.636Z,44
2016-08-14T08:14:14.180Z,48
2016-08-14T08:14:39.717Z,44
2016-08-14T08:15:05.241Z,44
2016-08-14T08:15:30.860Z,48
2016-08-14T08:15:56.411Z,48
2016-08-14T08:16:21.977Z,48
2016-08-14T08:16:47.505Z,44
2016-08-14T08:17:13.083Z,44
2016-08-14T08:17:38.696Z,44
2016-08-14T08:18:04.245Z,48
2016-08-14T08:18:29.819Z,48
2016-08-14T08:18:55.531Z,44
2016-08-14T08:19:21.111Z,48
2016-08-14T08:19:46.667Z,48
2016-08-14T08:20:12.299Z,44
2016-08-14T08:20:37.854Z,44
2016-08-14T08:21:03.406Z,48
2016-08-14T08:21:28.960Z,48
2016-08-14T08:21:54.521Z,48
2016-08-14T08:22:20.113Z,44
2016-08-14T08:22:45.678Z,44
2016-08-14T08:23:11.260Z,44
2016-08-14T08:23:36.838Z,44
2016-08-14T08:24:02.419Z,48
2016-08-14T08:24:27.979Z,48
2016-08-14T08:24:53.584Z,48
2016-08-14T08:25:19.170Z,48
2016-08-14T08:25:44.756Z,48
2016-08-14T08:26:10.306Z,48
2016-08-14T08:26:35.893Z,52
2016-08-14T08:27:01.515Z,52
2016-08-14T08:27:27.067Z,52
2016-08-14T08:27:52.614Z,48
2016-08-14T08:28:18.147Z,52
2016-08-14T08:28:43.802Z,48
2016-08-14T08:29:09.365Z,48
2016-08-14T08:29:34.939Z,48
2016-08-14T08:30:00.523Z,48
2016-08-14T08:30:26.138Z,48
2016-08-14T08:30:51.712Z,48
2016-08-14T08:31:17.369Z,48
2016-08-14T08:31:42.921Z,44
2016-08-14T08:32:08.473Z,48
2016-08-14T08:32:34.094Z,48
2016-08-14T08:32:59.645Z,48
2016-08-14T08:33:25.232Z,48
2016-08-14T08:33:50.784Z,48
2016-08-14T08:34:16.371Z,48
2016-08-14T08:34:42.003Z,48
2016-08-14T08:35:07.581Z,48
2016-08-14T08:35:33.182Z,48
2016-08-14T08:35:58.740Z,48
2016-08-14T08:36:24.301Z,48
2016-08-14T08:36:49.913Z,44
2016-08-14T08:37:15.605Z,44
2016-08-14T08:37:41.182Z,48
2016-08-14T08:38:06.840Z,48
2016-08-14T08:38:32.447Z,48
2016-08-14T08:38:58.027Z,48
2016-08-14T08:39:23.654Z,48
2016-08-14T08:39:49.168Z,48
2016-08-14T08:40:14.732Z,48
2016-08-14T08:40:40.315Z,48
2016-08-14T08:41:05.869Z,48
2016-08-14T08:41:31.478Z,52
2016-08-14T08:41:57.122Z,48
2016-08-14T08:42:22.693Z,48
2016-08-14T08:42:48.270Z,52
2016-08-14T08:43:13.842Z,52
2016-08-14T08:43:39.425Z,52
2016-08-14T08:44:04.993Z,48
2016-08-14T08:44:30.585Z,52
2016-08-14T08:44:56.299Z,52
2016-08-14T08:45:21.897Z,52
2016-08-14T08:45:47.455Z,52
2016-08-14T08:46:13.023Z,56
2016-08-14T08:46:38.574Z,52
2016-08-14T08:47:04.223Z,56
2016-08-14T08:47:29.824Z,56
2016-08-14T08:47:55.413Z,56
2016-08-14T08:48:20.983Z,56
2016-08-14T08:48:46.553Z,56
2016-08-14T08:49:12.251Z,52
2016-08-14T08:49:37.823Z,52
2016-08-14T08:50:03.415Z,52
2016-08-14T08:50:29.003Z,56
2016-08-14T08:50:54.579Z,52
2016-08-14T08:51:20.176Z,56
2016-08-14T08:51:45.749Z,52
2016-08-14T08:52:11.424Z,52
2016-08-14T08:52:37.054Z,52
2016-08-14T08:53:02.626Z,56
2016-08-14T08:53:28.312Z,56
2016-08-14T08:53:53.873Z,56
2016-08-14T08:54:19.434Z,52
2016-08-14T08:54:45.012Z,52
2016-08-14T08:55:10.604Z,52
2016-08-14T08:55:36.168Z,52
2016-08-14T08:56:01.730Z,52
2016-08-14T08:56:27.290Z,52
2016-08-14T08:56:52.996Z,48
2016-08-14T08:57:18.539Z,52
2016-08-14T08:57:44.123Z,48
2016-08-14T08:58:09.681Z,52
2016-08-14T08:58:35.277Z,52
2016-08-14T08:59:00.832Z,52
2016-08-14T08:59:26.434Z,52
2016-08-14T08:59:51.996Z,52
2016-08-14T09:00:17.596Z,52
2016-08-14T09:00:43.170Z,52
2016-08-14T09:01:08.830Z,52
2016-08-14T09:01:34.448Z,52
2016-08-14T09:02:00.182Z,52
2016-08-14T09:02:25.651Z,52
2016-08-14T09:02:51.237Z,48
2016-08-14T09:03:16.788Z,52
2016-08-14T09:03:42.427Z,48
2016-08-14T09:04:08.142Z,48
2016-08-14T09:04:33.705Z,48
2016-08-14T09:04:59.254Z,44
2016-08-14T09:05:24.831Z,48
2016-08-14T09:05:50.465Z,44
2016-08-14T09:06:16.033Z,44
2016-08-14T09:06:41.659Z,44
2016-08-14T09:07:07.259Z,44
2016-08-14T09:07:33.041Z,40
2016-08-14T09:07:58.612Z,40
2016-08-14T09:08:24.165Z,40
2016-08-14T09:08:49.732Z,40
2016-08-14T09:09:15.320Z,40
2016-08-14T09:09:40.918Z,36
2016-08-14T09:10:06.521Z,32
2016-08-14T09:10:32.128Z,32
2016-08-14T09:10:57.650Z,36
2016-08-14T09:11:23.208Z,32
2016-08-14T09:11:48.757Z,32
2016-08-14T09:12:14.334Z,32
2016-08-14T09:12:39.926Z,36
2016-08-14T09:13:05.480Z,32
2016-08-14T09:13:31.055Z,32
2016-08-14T09:13:56.675Z,32
2016-08-14T09:14:22.304Z,36
2016-08-14T09:14:47.856Z,32
2016-08-14T09:15:13.433Z,32
2016-08-14T09:15:39.051Z,32
2016-08-14T09:16:04.625Z,32
2016-08-14T09:17:07.861Z,28
2016-08-14T09:17:33.381Z,32
2016-08-14T09:17:58.938Z,28
2016-08-14T09:18:24.509Z,28
2016-08-14T09:18:50.080Z,32
2016-08-14T09:19:16.279Z,32
2016-08-14T09:19:41.888Z,36
2016-08-14T09:20:07.515Z,32
2016-08-14T09:20:33.059Z,32
2016-08-14T09:20:58.615Z,36
2016-08-14T09:21:24.220Z,36
2016-08-14T09:21:49.829Z,36
2016-08-14T09:22:15.409Z,36
2016-08-14T09:22:41.000Z,40
2016-08-14T09:23:06.620Z,40
2016-08-14T09:23:32.220Z,36
2016-08-14T09:23:57.829Z,32
2016-08-14T09:24:23.411Z,32
2016-08-14T09:24:48.982Z,40
2016-08-14T09:25:14.558Z,40
2016-08-14T09:25:40.173Z,40
2016-08-14T09:26:05.749Z,44
2016-08-14T09:26:31.325Z,40
2016-08-14T09:26:56.937Z,44
2016-08-14T09:27:22.591Z,48
2016-08-14T09:27:48.187Z,52
2016-08-14T09:28:13.743Z,56
2016-08-14T09:28:39.334Z,52
2016-08-14T09:29:04.937Z,52
2016-08-14T09:29:30.514Z,52
2016-08-14T09:29:56.079Z,60
2016-08-14T09:30:21.724Z,56
2016-08-14T09:30:47.313Z,60
2016-08-14T09:31:12.880Z,60
2016-08-14T09:31:38.478Z,60
2016-08-14T09:32:04.033Z,64
2016-08-14T09:32:29.625Z,64
2016-08-14T09:32:55.173Z,64
2016-08-14T09:33:20.735Z,64
2016-08-14T09:33:46.304Z,60
2016-08-14T09:34:11.866Z,56
2016-08-14T09:34:37.456Z,60
2016-08-14T09:35:03.041Z,56
2016-08-14T09:36:21.572Z,52
2016-08-14T09:36:47.183Z,52
2016-08-14T09:37:12.760Z,56
2016-08-14T09:37:38.322Z,56
2016-08-14T09:38:03.981Z,56
2016-08-14T09:38:29.575Z,56
2016-08-14T09:38:55.138Z,56
2016-08-14T09:39:20.721Z,60
2016-08-14T09:39:46.401Z,60
2016-08-14T09:40:11.997Z,64
2016-08-14T09:40:37.581Z,60
2016-08-14T09:41:03.192Z,64
2016-08-14T09:41:28.818Z,64
2016-08-14T09:41:54.384Z,64
2016-08-14T09:42:19.940Z,68
2016-08-14T09:42:45.505Z,64
2016-08-14T09:43:11.094Z,68
2016-08-14T09:43:36.663Z,64
2016-08-14T09:44:02.374Z,64
2016-08-14T09:44:27.936Z,64
2016-08-14T09:44:53.534Z,68
2016-08-14T09:45:19.239Z,64
2016-08-14T09:45:44.801Z,64
2016-08-14T09:46:10.372Z,60
2016-08-14T09:46:35.932Z,52
2016-08-14T09:47:01.488Z,52
2016-08-14T09:47:27.080Z,48
2016-08-14T09:47:52.675Z,44
2016-08-14T09:48:18.230Z,44
2016-08-14T09:48:43.842Z,44
2016-08-14T09:49:09.402Z,40
2016-08-14T09:49:34.945Z,40
2016-08-14T09:50:00.514Z,40
2016-08-14T09:50:26.099Z,48
2016-08-14T09:50:51.701Z,44
2016-08-14T09:51:17.268Z,48
2016-08-14T09:51:42.858Z,48
2016-08-14T09:52:08.451Z,52
2016-08-14T09:52:34.040Z,48
2016-08-14T09:52:59.599Z,48
2016-08-14T09:53:25.405Z,48
2016-08-14T09:53:50.988Z,52
2016-08-14T09:54:16.603Z,48
2016-08-14T09:54:42.152Z,52
2016-08-14T09:55:07.722Z,52
2016-08-14T09:55:33.310Z,60
2016-08-14T09:55:58.849Z,60
2016-08-14T09:56:24.428Z,60
2016-08-14T09:56:49.990Z,68
2016-08-14T09:57:15.545Z,68
2016-08-14T09:57:41.151Z,68
2016-08-14T09:58:06.725Z,72
2016-08-14T09:58:32.356Z,72
2016-08-14T09:58:57.887Z,68
2016-08-14T09:59:23.481Z,68
2016-08-14T09:59:49.212Z,68
2016-08-14T10:00:14.792Z,68
2016-08-14T10:00:40.386Z,68
2016-08-14T10:01:05.963Z,64
2016-08-14T10:01:31.570Z,68
2016-08-14T10:01:57.233Z,64
2016-08-14T10:02:22.845Z,68
2016-08-14T10:02:48.406Z,68
2016-08-14T10:03:13.944Z,68
2016-08-14T10:03:39.594Z,64
2016-08-14T10:04:05.175Z,68
2016-08-14T10:04:30.827Z,64
2016-08-14T10:04:56.457Z,64
2016-08-14T10:05:22.031Z,60
2016-08-14T10:05:47.591Z,60
2016-08-14T10:06:13.207Z,64
2016-08-14T10:06:38.956Z,68
2016-08-14T10:07:04.539Z,60
2016-08-14T10:07:30.110Z,64
2016-08-14T10:07:55.682Z,60
2016-08-14T10:08:21.322Z,60
2016-08-14T10:08:47.025Z,60
2016-08-14T10:09:12.646Z,64
2016-08-14T10:09:38.319Z,60
2016-08-14T10:10:03.874Z,60
2016-08-14T10:10:29.448Z,60
2016-08-14T10:10:55.066Z,60
2016-08-14T10:11:20.715Z,60
2016-08-14T10:11:46.314Z,64
2016-08-14T10:12:11.886Z,60
2016-08-14T10:12:37.472Z,60
2016-08-14T10:13:03.030Z,60
2016-08-14T10:13:28.613Z,60
2016-08-14T10:14:52.249Z,56
2016-08-14T10:15:17.822Z,56
2016-08-14T10:15:43.533Z,52
2016-08-14T10:16:09.089Z,48
2016-08-14T10:16:34.657Z,48
2016-08-14T10:17:00.257Z,48
2016-08-14T10:17:25.855Z,48
2016-08-14T10:17:51.404Z,48
2016-08-14T10:18:17.055Z,48
2016-08-14T10:18:42.685Z,48
2016-08-14T10:19:08.245Z,52
2016-08-14T10:19:33.800Z,52
2016-08-14T10:19:59.407Z,52
2016-08-14T10:20:24.954Z,52
2016-08-14T10:20:50.554Z,56
2016-08-14T10:21:16.154Z,60
2016-08-14T10:21:41.711Z,60
2016-08-14T10:22:07.318Z,60
2016-08-14T10:22:32.890Z,56
2016-08-14T10:22:58.447Z,60
2016-08-14T10:23:24.002Z,60
2016-08-14T10:23:49.634Z,60
2016-08-14T10:24:15.201Z,60
2016-08-14T10:24:40.811Z,60
2016-08-14T10:25:06.373Z,60
2016-08-14T10:25:31.955Z,56
2016-08-14T10:25:57.565Z,60
2016-08-14T10:26:23.147Z,60
2016-08-14T10:26:48.821Z,60
2016-08-14T10:27:14.367Z,60
2016-08-14T10:27:39.951Z,64
2016-08-14T10:28:05.532Z,60
2016-08-14T10:28:31.107Z,60
2016-08-14T10:28:56.669Z,60
2016-08-14T10:29:22.266Z,60
2016-08-14T10:29:47.857Z,60